createdAt,value
2023-04-17T00:00:27.054Z,27.63
2023-04-17T00:02:53.567Z,25.00
2023-04-17T00:05:23.298Z,26.88
2023-04-17T00:07:49.824Z,29.45
2023-04-17T00:10:16.586Z,33.80
2023-04-17T00:12:43.113Z,27.67
2023-04-17T00:15:09.673Z,24.40
2023-04-17T00:17:36.028Z,31.17
2023-04-17T00:20:03.847Z,24.23
2023-04-17T00:22:30.181Z,28.50
2023-04-17T00:24:56.631Z,28.17
2023-04-17T00:27:23.061Z,22.42
2023-04-17T00:29:49.456Z,25.15
2023-04-17T00:32:15.875Z,25.40
2023-04-17T00:34:42.267Z,26.02
2023-04-17T00:37:08.656Z,25.77
2023-04-17T00:39:35.029Z,25.20
2023-04-17T00:42:01.684Z,26.67
2023-04-17T00:44:27.996Z,21.10
2023-04-17T00:46:54.778Z,17.02
2023-04-17T00:49:21.993Z,22.35
2023-04-17T00:51:48.587Z,20.65
2023-04-17T00:54:15.487Z,24.42
2023-04-17T00:56:42.638Z,21.98
2023-04-17T00:59:10.855Z,19.02
2023-04-17T01:01:37.548Z,27.20
2023-04-17T01:04:05.466Z,32.00
2023-04-17T01:06:32.064Z,30.25
2023-04-17T01:08:58.611Z,25.52
2023-04-17T01:11:24.971Z,27.88
2023-04-17T01:13:51.456Z,30.27
2023-04-17T01:16:18.241Z,23.92
2023-04-17T01:18:44.676Z,31.05
2023-04-17T01:21:11.223Z,22.48
2023-04-17T01:23:45.468Z,29.38
2023-04-17T01:26:16.270Z,32.83
2023-04-17T01:28:42.651Z,25.80
2023-04-17T01:31:09.067Z,28.73
2023-04-17T01:33:35.450Z,29.10
2023-04-17T01:36:01.785Z,31.13
2023-04-17T01:38:28.265Z,22.52
2023-04-17T01:40:54.577Z,30.83
2023-04-17T01:43:20.901Z,24.73
2023-04-17T01:45:47.349Z,31.08
2023-04-17T01:48:13.673Z,26.98
2023-04-17T01:50:40.139Z,27.90
2023-04-17T01:53:06.510Z,21.08
2023-04-17T01:55:32.826Z,24.75
2023-04-17T01:57:59.251Z,21.40
2023-04-17T02:00:25.701Z,22.63
2023-04-17T02:02:52.255Z,19.63
2023-04-17T02:05:18.747Z,20.85
2023-04-17T02:07:45.244Z,18.80
2023-04-17T02:10:11.683Z,18.92
2023-04-17T02:12:38.002Z,13.07
2023-04-17T02:15:04.566Z,17.20
2023-04-17T02:17:31.040Z,17.80
2023-04-17T02:19:57.480Z,18.05
2023-04-17T02:22:23.952Z,15.20
2023-04-17T02:24:50.278Z,23.20
2023-04-17T02:27:17.410Z,17.98
2023-04-17T02:29:43.765Z,20.77
2023-04-17T02:32:10.121Z,18.02
2023-04-17T02:34:36.408Z,20.15
2023-04-17T02:37:02.815Z,23.17
2023-04-17T02:39:29.276Z,14.85
2023-04-17T02:41:55.753Z,19.73
2023-04-17T02:44:22.173Z,19.67
2023-04-17T02:46:48.588Z,13.57
2023-04-17T02:49:15.001Z,19.73
2023-04-17T02:51:41.326Z,19.00
2023-04-17T02:54:07.675Z,21.15
2023-04-17T02:56:33.991Z,17.38
2023-04-17T02:59:00.491Z,20.80
2023-04-17T03:01:27.892Z,22.35
2023-04-17T03:03:54.407Z,23.95
2023-04-17T03:06:21.759Z,20.17
2023-04-17T03:08:48.131Z,20.80
2023-04-17T03:11:14.499Z,18.02
2023-04-17T03:13:40.857Z,23.13
2023-04-17T03:16:07.333Z,20.83
2023-04-17T03:18:34.765Z,15.45
2023-04-17T03:21:01.169Z,18.17
2023-04-17T03:23:27.484Z,20.10
2023-04-17T03:25:53.859Z,20.92
2023-04-17T03:28:21.943Z,21.25
2023-04-17T03:30:49.449Z,22.70
2023-04-17T03:33:16.513Z,15.50
2023-04-17T03:35:43.051Z,16.30
2023-04-17T03:38:09.626Z,18.23
2023-04-17T03:40:36.113Z,16.55
2023-04-17T03:43:02.480Z,15.15
2023-04-17T03:45:28.800Z,18.83
2023-04-17T03:47:55.192Z,18.73
2023-04-17T03:50:21.568Z,18.98
2023-04-17T03:52:47.917Z,16.02
2023-04-17T03:55:14.440Z,10.63
2023-04-17T03:57:41.059Z,22.00
2023-04-17T04:00:10.453Z,20.27
2023-04-17T04:02:37.088Z,17.65
2023-04-17T04:05:03.872Z,14.60
2023-04-17T04:07:30.353Z,20.13
2023-04-17T04:09:56.893Z,14.95
2023-04-17T04:12:23.282Z,14.60
2023-04-17T04:14:49.588Z,19.60
2023-04-17T04:17:16.029Z,15.27
2023-04-17T04:19:43.546Z,14.75
2023-04-17T04:22:10.384Z,14.55
2023-04-17T04:24:36.719Z,15.82
2023-04-17T04:27:06.116Z,13.77
2023-04-17T04:29:32.789Z,13.18
2023-04-17T04:31:59.749Z,17.83
2023-04-17T04:34:29.766Z,18.35
2023-04-17T04:36:56.883Z,14.65
2023-04-17T04:39:23.311Z,15.68
2023-04-17T04:41:50.687Z,17.85
2023-04-17T04:44:17.562Z,10.85
2023-04-17T04:46:44.037Z,14.60
2023-04-17T04:49:10.915Z,14.90
2023-04-17T04:51:37.668Z,16.65
2023-04-17T04:54:04.356Z,15.68
2023-04-17T04:56:32.924Z,15.70
2023-04-17T04:58:59.440Z,15.75
2023-04-17T05:01:25.890Z,20.55
2023-04-17T05:03:52.505Z,19.80
2023-04-17T05:06:19.687Z,21.95
2023-04-17T05:08:46.186Z,22.05
2023-04-17T05:11:12.576Z,16.75
2023-04-17T05:13:38.916Z,20.90
2023-04-17T05:16:05.765Z,22.30
2023-04-17T05:18:32.163Z,17.42
2023-04-17T05:20:58.496Z,15.82
2023-04-17T05:23:24.845Z,21.77
2023-04-17T05:25:51.256Z,21.73
2023-04-17T05:28:17.634Z,14.68
2023-04-17T05:30:44.332Z,24.88
2023-04-17T05:33:10.754Z,21.75
2023-04-17T05:35:37.134Z,21.70
2023-04-17T05:38:04.729Z,23.77
2023-04-17T05:40:31.064Z,23.95
2023-04-17T05:42:57.444Z,21.60
2023-04-17T05:45:25.592Z,27.75
2023-04-17T05:47:52.216Z,15.13
2023-04-17T05:50:18.743Z,22.05
2023-04-17T05:52:47.618Z,20.52
2023-04-17T05:55:15.232Z,19.52
2023-04-17T05:57:41.635Z,19.75
2023-04-17T06:00:12.713Z,14.93
2023-04-17T06:02:40.949Z,24.63
2023-04-17T06:05:07.792Z,27.88
2023-04-17T06:07:34.573Z,16.35
2023-04-17T06:10:01.592Z,23.27
2023-04-17T06:12:27.938Z,21.25
2023-04-17T06:14:54.458Z,22.17
2023-04-17T06:17:21.168Z,23.77
2023-04-17T06:19:47.565Z,20.92
2023-04-17T06:22:13.986Z,18.42
2023-04-17T06:24:40.455Z,27.80
2023-04-17T06:27:06.791Z,21.10
2023-04-17T06:29:33.119Z,22.00
2023-04-17T06:31:59.619Z,22.80
2023-04-17T06:34:26.026Z,20.77
2023-04-17T06:36:53.424Z,20.23
2023-04-17T06:39:20.002Z,24.63
2023-04-17T06:41:46.345Z,21.25
2023-04-17T06:44:12.750Z,22.80
2023-04-17T06:46:39.094Z,23.52
2023-04-17T06:49:05.490Z,23.98
2023-04-17T06:51:31.905Z,21.67
2023-04-17T06:53:59.231Z,20.15
2023-04-17T06:56:25.824Z,17.77
2023-04-17T06:58:53.411Z,22.77
2023-04-17T07:01:20.782Z,24.88
2023-04-17T07:03:47.465Z,21.90
2023-04-17T07:06:14.056Z,18.23
2023-04-17T07:08:40.539Z,26.13
2023-04-17T07:11:06.896Z,22.50
2023-04-17T07:13:33.354Z,23.63
2023-04-17T07:16:01.323Z,20.75
2023-04-17T07:18:29.485Z,21.48
2023-04-17T07:20:56.638Z,24.40
2023-04-17T07:23:23.104Z,22.15
2023-04-17T07:25:49.404Z,26.20
2023-04-17T07:28:15.819Z,20.13
2023-04-17T07:30:42.681Z,21.35
2023-04-17T07:33:09.310Z,23.90
2023-04-17T07:35:35.858Z,22.02
2023-04-17T07:38:03.939Z,20.50
2023-04-17T07:40:30.904Z,24.83
2023-04-17T07:42:57.612Z,22.25
2023-04-17T07:45:24.006Z,21.38
2023-04-17T07:47:53.532Z,23.05
2023-04-17T07:50:20.345Z,22.60
2023-04-17T07:52:46.917Z,23.15
2023-04-17T07:55:13.413Z,22.90
2023-04-17T07:57:43.273Z,20.77
2023-04-17T08:00:10.747Z,24.52
2023-04-17T08:02:37.242Z,25.73
2023-04-17T08:05:05.726Z,24.50
2023-04-17T08:07:32.220Z,13.82
2023-04-17T08:09:58.688Z,22.42
2023-04-17T08:12:25.132Z,26.67
2023-04-17T08:14:51.630Z,24.67
2023-04-17T08:17:22.721Z,30.15
2023-04-17T08:19:53.744Z,19.60
2023-04-17T08:22:24.161Z,24.13
2023-04-17T08:24:50.908Z,26.83
2023-04-17T08:27:17.298Z,26.55
2023-04-17T08:29:43.622Z,29.30
2023-04-17T08:32:14.508Z,24.02
2023-04-17T08:34:42.134Z,24.98
2023-04-17T08:37:08.452Z,23.08
2023-04-17T08:39:34.920Z,24.55
2023-04-17T08:42:05.381Z,29.42
2023-04-17T08:44:31.757Z,25.55
2023-04-17T08:46:58.432Z,19.75
2023-04-17T08:49:25.327Z,30.48
2023-04-17T08:51:51.631Z,22.65
2023-04-17T08:54:19.444Z,29.52
2023-04-17T08:56:46.494Z,22.48
2023-04-17T08:59:13.062Z,27.15
2023-04-17T09:01:39.556Z,26.08
2023-04-17T09:04:06.199Z,32.08
2023-04-17T09:06:54.384Z,50.67
2023-04-17T09:09:20.950Z,30.33
2023-04-17T09:12:07.255Z,36.00
2023-04-17T09:17:00.957Z,30.55
2023-04-17T09:19:27.324Z,28.35
2023-04-17T09:21:54.267Z,26.02
2023-04-17T09:24:37.573Z,25.98
2023-04-17T09:27:19.397Z,31.05
2023-04-17T09:30:02.631Z,22.48
2023-04-17T09:32:29.810Z,26.92
2023-04-17T09:34:57.663Z,25.15
2023-04-17T09:37:24.521Z,31.10
2023-04-17T09:39:57.796Z,24.05
2023-04-17T09:42:24.546Z,28.48
2023-04-17T09:44:50.948Z,30.05
2023-04-17T09:47:20.018Z,26.17
2023-04-17T09:49:52.503Z,24.85
2023-04-17T09:52:19.851Z,22.73
2023-04-17T09:54:47.404Z,22.63
2023-04-17T09:57:13.826Z,24.15
2023-04-17T09:59:50.521Z,28.48
2023-04-17T10:02:18.080Z,24.50
2023-04-17T10:04:45.487Z,27.02
2023-04-17T10:07:13.138Z,25.08
2023-04-17T10:09:41.425Z,18.17
2023-04-17T10:12:11.599Z,22.33
2023-04-17T10:14:39.501Z,23.58
2023-04-17T10:17:38.570Z,22.65
2023-04-17T10:20:20.144Z,20.80
2023-04-17T10:22:49.251Z,24.35
2023-04-17T10:25:15.649Z,24.25
2023-04-17T10:27:42.000Z,23.17
2023-04-17T10:30:10.426Z,20.55
2023-04-17T10:32:36.872Z,22.00
2023-04-17T10:35:23.245Z,27.02
2023-04-17T10:37:52.413Z,29.42
2023-04-17T10:40:22.665Z,22.52
2023-04-17T10:43:02.177Z,26.63
2023-04-17T10:45:48.573Z,19.55
2023-04-17T10:48:28.706Z,22.38
2023-04-17T10:50:56.107Z,27.27
2023-04-17T10:53:38.233Z,26.02
2023-04-17T10:56:04.917Z,22.40
2023-04-17T10:58:32.137Z,25.60
2023-04-17T11:01:02.547Z,27.60
2023-04-17T11:03:30.016Z,21.10
2023-04-17T11:05:58.817Z,23.55
2023-04-17T11:08:25.254Z,23.08
2023-04-17T11:10:57.715Z,20.77
2023-04-17T11:13:24.094Z,22.95
2023-04-17T11:15:50.856Z,25.40
2023-04-17T11:18:17.299Z,25.58
2023-04-17T11:20:43.786Z,16.35
2023-04-17T11:23:10.336Z,22.17
2023-04-17T11:25:37.840Z,25.67
2023-04-17T11:28:05.845Z,21.00
2023-04-17T11:30:44.514Z,18.30
2023-04-17T11:33:12.323Z,20.52
2023-04-17T11:35:40.046Z,20.98
2023-04-17T11:38:06.628Z,20.48
2023-04-17T11:40:33.720Z,21.10
2023-04-17T11:43:05.913Z,20.63
2023-04-17T11:45:33.218Z,16.38
2023-04-17T11:47:59.753Z,22.60
2023-04-17T11:50:32.784Z,21.70
2023-04-17T11:53:03.099Z,22.35
2023-04-17T11:55:35.202Z,19.35
2023-04-17T11:58:04.034Z,20.70
2023-04-17T12:00:30.560Z,19.70
2023-04-17T12:02:57.983Z,23.95
2023-04-17T12:05:25.880Z,16.45
2023-04-17T12:08:05.908Z,16.60
2023-04-17T12:10:38.526Z,17.80
2023-04-17T12:13:04.983Z,17.25
2023-04-17T12:15:31.359Z,15.55
2023-04-17T12:17:57.693Z,16.45
2023-04-17T12:20:26.592Z,21.65
2023-04-17T12:22:53.176Z,18.08
2023-04-17T12:25:19.566Z,20.63
2023-04-17T12:27:48.011Z,18.38
2023-04-17T12:30:15.964Z,16.23
2023-04-17T12:32:45.861Z,18.58
2023-04-17T12:35:12.259Z,19.65
2023-04-17T12:37:38.666Z,18.35
2023-04-17T12:40:05.965Z,16.85
2023-04-17T12:42:36.401Z,19.20
2023-04-17T12:45:13.282Z,15.98
2023-04-17T12:47:39.720Z,18.48
2023-04-17T12:50:06.919Z,18.25
2023-04-17T12:52:33.345Z,18.95
2023-04-17T12:55:00.132Z,18.00
2023-04-17T12:57:27.084Z,18.92
2023-04-17T12:59:53.698Z,19.15
2023-04-17T13:02:21.155Z,17.15
2023-04-17T13:04:47.759Z,17.48
2023-04-17T13:07:14.220Z,17.83
2023-04-17T13:09:40.550Z,17.02
2023-04-17T13:12:06.987Z,19.77
2023-04-17T13:14:33.320Z,17.80
2023-04-17T13:16:59.749Z,16.80
2023-04-17T13:19:26.297Z,18.48
2023-04-17T13:21:52.647Z,15.98
2023-04-17T13:24:19.083Z,17.17
2023-04-17T13:26:45.420Z,21.02
2023-04-17T13:29:12.014Z,20.10
2023-04-17T13:31:38.519Z,16.98
2023-04-17T13:34:06.595Z,23.85
2023-04-17T13:36:33.913Z,20.05
2023-04-17T13:39:00.365Z,22.17
2023-04-17T13:41:26.826Z,20.92
2023-04-17T13:43:55.154Z,20.75
2023-04-17T13:46:21.691Z,14.10
2023-04-17T13:48:48.338Z,16.23
2023-04-17T13:51:14.773Z,14.70
2023-04-17T13:53:41.107Z,14.15
2023-04-17T13:56:07.584Z,16.98
2023-04-17T13:58:34.379Z,15.80
2023-04-17T14:01:00.823Z,15.07
2023-04-17T14:03:27.583Z,15.05
2023-04-17T14:05:54.079Z,26.73
2023-04-17T14:08:20.696Z,14.52
2023-04-17T14:10:47.184Z,18.35
2023-04-17T14:13:13.541Z,15.85
2023-04-17T14:15:40.313Z,15.10
2023-04-17T14:18:06.992Z,15.55
2023-04-17T14:20:33.436Z,15.07
2023-04-17T14:22:59.780Z,21.25
2023-04-17T14:25:26.342Z,16.83
2023-04-17T14:27:52.760Z,19.63
2023-04-17T14:30:19.188Z,15.10
2023-04-17T14:32:45.645Z,17.67
2023-04-17T14:35:13.263Z,12.70
2023-04-17T14:37:39.699Z,20.80
2023-04-17T14:40:06.656Z,14.27
2023-04-17T14:42:40.729Z,21.48
2023-04-17T14:45:17.399Z,16.42
2023-04-17T14:47:44.191Z,13.82
2023-04-17T14:50:10.600Z,14.73
2023-04-17T14:52:36.979Z,14.13
2023-04-17T14:55:03.479Z,14.68
2023-04-17T14:57:30.008Z,14.75
2023-04-17T14:59:56.375Z,14.55
2023-04-17T15:02:22.932Z,18.42
2023-04-17T15:04:50.596Z,16.30
2023-04-17T15:07:16.982Z,13.00
2023-04-17T15:09:43.359Z,15.30
2023-04-17T15:12:09.728Z,13.80
2023-04-17T15:14:36.125Z,16.00
2023-04-17T15:17:03.265Z,14.40
2023-04-17T15:19:29.717Z,12.90
2023-04-17T15:21:56.053Z,12.57
2023-04-17T15:24:22.359Z,18.23
2023-04-17T15:26:49.611Z,11.65
2023-04-17T15:29:16.110Z,17.67
2023-04-17T15:31:42.467Z,12.75
2023-04-17T15:34:08.869Z,12.43
2023-04-17T15:36:35.361Z,12.85
2023-04-17T15:39:01.781Z,12.45
2023-04-17T15:41:28.213Z,11.70
2023-04-17T15:43:54.559Z,12.85
2023-04-17T15:46:21.213Z,12.05
2023-04-17T15:48:57.712Z,14.90
2023-04-17T15:51:31.600Z,14.25
2023-04-17T15:53:57.922Z,11.82
2023-04-17T15:56:24.390Z,15.63
2023-04-17T15:58:50.767Z,13.77
2023-04-17T16:01:17.309Z,17.17
2023-04-17T16:03:43.848Z,13.07
2023-04-17T16:06:11.309Z,15.82
2023-04-17T16:08:37.982Z,22.58
2023-04-17T16:11:04.535Z,22.70
2023-04-17T16:13:30.929Z,20.77
2023-04-17T16:15:57.499Z,23.50
2023-04-17T16:18:23.897Z,20.15
2023-04-17T16:20:50.214Z,17.30
2023-04-17T16:23:16.586Z,21.92
2023-04-17T16:25:42.948Z,20.52
2023-04-17T16:28:09.238Z,17.27
2023-04-17T16:30:35.548Z,20.83
2023-04-17T16:33:02.689Z,23.63
2023-04-17T16:35:30.041Z,19.20
2023-04-17T16:37:56.435Z,16.92
2023-04-17T16:40:22.840Z,17.25
2023-04-17T16:42:49.144Z,17.88
2023-04-17T16:45:15.667Z,22.33
2023-04-17T16:47:42.180Z,20.27
2023-04-17T16:50:11.489Z,23.08
2023-04-17T16:52:38.777Z,20.08
2023-04-17T16:55:05.296Z,20.77
2023-04-17T16:57:32.034Z,17.05
2023-04-17T16:59:58.387Z,24.52
2023-04-17T17:02:24.800Z,16.90
2023-04-17T17:04:51.265Z,20.63
2023-04-17T17:07:17.739Z,19.20
2023-04-17T17:09:44.163Z,19.50
2023-04-17T17:12:11.276Z,22.90
2023-04-17T17:14:37.715Z,26.23
2023-04-17T17:17:04.011Z,28.13
2023-04-17T17:19:30.431Z,20.13
2023-04-17T17:21:56.922Z,18.40
2023-04-17T17:24:23.626Z,25.27
2023-04-17T17:26:50.009Z,22.98
2023-04-17T17:29:16.490Z,21.88
2023-04-17T17:31:43.586Z,23.40
2023-04-17T17:34:25.034Z,25.48
2023-04-17T17:36:52.851Z,24.55
2023-04-17T17:39:21.097Z,26.67
2023-04-17T17:41:47.840Z,27.02
2023-04-17T17:44:14.902Z,23.80
2023-04-17T17:46:41.609Z,30.92
2023-04-17T17:49:08.187Z,26.25
2023-04-17T17:51:34.573Z,28.50
2023-04-17T17:54:01.015Z,27.73
2023-04-17T17:56:28.292Z,23.20
2023-04-17T17:58:54.630Z,24.05
2023-04-17T18:01:23.370Z,27.05
2023-04-17T18:03:50.224Z,27.27
2023-04-17T18:06:16.813Z,26.30
2023-04-17T18:08:43.169Z,22.25
2023-04-17T18:11:09.543Z,21.92
2023-04-17T18:13:35.961Z,25.73
2023-04-17T18:16:05.691Z,25.90
2023-04-17T18:18:32.038Z,27.02
2023-04-17T18:20:58.406Z,23.60
2023-04-17T18:23:24.815Z,20.30
2023-04-17T18:25:58.656Z,25.77
2023-04-17T18:28:25.412Z,23.20
2023-04-17T18:30:51.833Z,20.00
2023-04-17T18:33:18.321Z,21.35
2023-04-17T18:35:44.652Z,24.70
2023-04-17T18:38:10.999Z,22.83
2023-04-17T18:40:37.690Z,19.65
2023-04-17T18:43:05.743Z,20.85
2023-04-17T18:45:32.457Z,24.20
2023-04-17T18:47:58.902Z,23.48
2023-04-17T18:50:26.825Z,27.02
2023-04-17T18:52:53.296Z,29.65
2023-04-17T18:55:19.745Z,19.17
2023-04-17T18:57:46.143Z,23.20
2023-04-17T19:00:12.791Z,24.13
2023-04-17T19:02:40.697Z,22.40
2023-04-17T19:05:07.440Z,26.50
2023-04-17T19:07:33.873Z,20.40
2023-04-17T19:10:00.417Z,24.55
2023-04-17T19:12:26.778Z,27.48
2023-04-17T19:14:53.139Z,24.40
2023-04-17T19:17:19.488Z,27.10
2023-04-17T19:19:45.939Z,19.92
2023-04-17T19:22:14.077Z,24.67
2023-04-17T19:24:41.845Z,22.88
2023-04-17T19:27:08.213Z,24.73
2023-04-17T19:29:34.534Z,23.27
2023-04-17T19:32:01.011Z,22.00
2023-04-17T19:34:27.499Z,20.50
2023-04-17T19:36:53.919Z,20.15
2023-04-17T19:39:20.491Z,21.23
2023-04-17T19:41:50.775Z,23.98
2023-04-17T19:44:17.348Z,22.17
2023-04-17T19:46:43.713Z,26.85
2023-04-17T19:49:11.900Z,25.60
2023-04-17T19:51:38.855Z,21.55
2023-04-17T19:54:05.501Z,18.45
2023-04-17T19:56:31.958Z,22.65
2023-04-17T19:59:02.610Z,24.70
2023-04-17T20:01:30.176Z,22.73
2023-04-17T20:03:57.020Z,22.35
2023-04-17T20:06:23.602Z,25.08
2023-04-17T20:08:50.200Z,20.50
2023-04-17T20:11:16.749Z,20.88
2023-04-17T20:13:43.164Z,24.05
2023-04-17T20:16:09.460Z,23.73
2023-04-17T20:18:37.307Z,22.95
2023-04-17T20:21:06.363Z,21.77
2023-04-17T20:23:33.071Z,18.60
2023-04-17T20:25:59.457Z,25.52
2023-04-17T20:28:28.677Z,16.20
2023-04-17T20:30:55.542Z,18.75
2023-04-17T20:33:21.959Z,17.15
2023-04-17T20:35:48.380Z,19.23
2023-04-17T20:38:14.771Z,17.50
2023-04-17T20:40:41.151Z,21.33
2023-04-17T20:43:07.545Z,16.98
2023-04-17T20:45:33.880Z,23.20
2023-04-17T20:48:00.338Z,14.85
2023-04-17T20:50:26.771Z,13.13
2023-04-17T20:52:53.133Z,17.90
2023-04-17T20:55:19.969Z,17.23
2023-04-17T20:57:46.781Z,17.92
2023-04-17T21:00:13.410Z,18.48
2023-04-17T21:02:39.951Z,15.27
2023-04-17T21:05:07.245Z,13.85
2023-04-17T21:07:33.675Z,15.85
2023-04-17T21:10:00.168Z,13.65
2023-04-17T21:12:26.560Z,14.43
2023-04-17T21:14:52.931Z,13.90
2023-04-17T21:17:19.344Z,10.18
2023-04-17T21:19:46.163Z,18.55
2023-04-17T21:22:13.064Z,15.57
2023-04-17T21:24:39.771Z,15.30
2023-04-17T21:27:06.191Z,15.60
2023-04-17T21:29:32.601Z,14.38
2023-04-17T21:31:59.141Z,14.57
2023-04-17T21:34:25.713Z,13.60
2023-04-17T21:36:55.218Z,11.32
2023-04-17T21:39:22.080Z,13.68
2023-04-17T21:41:48.636Z,17.17
2023-04-17T21:44:15.457Z,15.90
2023-04-17T21:46:43.535Z,14.95
2023-04-17T21:49:09.906Z,17.52
2023-04-17T21:51:36.224Z,16.17
2023-04-17T21:54:02.615Z,12.85
2023-04-17T21:56:28.920Z,17.23
2023-04-17T21:58:55.800Z,12.65
2023-04-17T22:01:22.286Z,13.32
2023-04-17T22:03:48.741Z,14.98
2023-04-17T22:06:15.069Z,16.17
2023-04-17T22:08:41.970Z,12.50
2023-04-17T22:11:08.401Z,14.68
2023-04-17T22:13:35.013Z,14.35
2023-04-17T22:16:02.332Z,17.50
2023-04-17T22:18:28.688Z,16.23
2023-04-17T22:20:55.036Z,11.82
2023-04-17T22:23:58.894Z,9.93
2023-04-17T22:26:26.883Z,10.63
2023-04-17T22:29:11.820Z,15.68
2023-04-17T22:31:56.910Z,12.85
2023-04-17T22:34:42.547Z,15.55
2023-04-17T22:37:27.585Z,11.70
2023-04-17T22:40:12.603Z,18.00
2023-04-17T22:42:57.803Z,17.65
2023-04-17T22:45:24.133Z,18.02
2023-04-17T22:47:50.501Z,16.15
2023-04-17T22:50:17.732Z,13.82
2023-04-17T22:52:44.208Z,15.52
2023-04-17T22:55:11.134Z,17.27
2023-04-17T22:57:37.535Z,15.45
2023-04-17T23:00:04.248Z,15.25
2023-04-17T23:02:30.967Z,14.80
2023-04-17T23:04:57.459Z,15.85
2023-04-17T23:07:23.811Z,14.80
2023-04-17T23:09:50.361Z,11.88
2023-04-17T23:12:16.787Z,14.02
2023-04-17T23:14:44.255Z,13.68
2023-04-17T23:17:10.665Z,14.35
2023-04-17T23:19:36.978Z,10.82
2023-04-17T23:22:03.530Z,16.17
2023-04-17T23:24:32.242Z,9.82
2023-04-17T23:26:58.567Z,14.30
2023-04-17T23:29:24.900Z,12.95
2023-04-17T23:31:51.408Z,14.07
2023-04-17T23:34:17.930Z,15.50
2023-04-17T23:36:44.445Z,14.20
2023-04-17T23:39:10.862Z,14.75
2023-04-17T23:41:37.207Z,16.15
2023-04-17T23:44:03.939Z,11.20
2023-04-17T23:46:30.894Z,15.60
2023-04-17T23:48:57.299Z,16.63
2023-04-17T23:51:23.685Z,17.88
2023-04-17T23:53:50.699Z,19.02
2023-04-17T23:56:18.071Z,16.95
2023-04-17T23:58:44.407Z,16.77
